Montague, California
Current Conditions -  °F | °C
As of 11:53 PM on Wednesday 22 Oct 2014 (Local Time) from KSIY Reporting Station
Light Rain Light Rain  
Wind Chill: 52°   Ceiling: 7000
Heat Index: 52°   Visibility: 10mi
Dew Point: 49°   Wind: 12mph
Humidity: 89%   Direction: 160°SSE
Pressure: 29.98"   Gusts: NA
Location:  41.73°N, 122.53°W
Report Text: KSIY 230653Z AUTO 16010KT 10SM -RA OVC070 11/09 A2998 RMK AO2 SLP155 P0002 T01110094
Loading
Personal Weather Stations






























Interactive Weather Map
Tropical Storm Tracking
New forecast layout! Learn more

10-Day Weather Forecast

Advertisements
Track Severe Weather on mobile